sensor_id;sensor_type;location;lat;lon;timestamp;pressure;altitude;pressure_sealevel;temperature;humidity
59443;BME280;45247;47.466;19.004;2022-12-10T00:01:29;98305.25;;;4.60;100.00
59443;BME280;45247;47.466;19.004;2022-12-10T00:03:58;98304.25;;;4.63;100.00
59443;BME280;45247;47.466;19.004;2022-12-10T00:06:28;98304.03;;;4.66;100.00
59443;BME280;45247;47.466;19.004;2022-12-10T00:08:58;98297.03;;;4.66;100.00
59443;BME280;45247;47.466;19.004;2022-12-10T00:11:26;98309.09;;;4.69;100.00
59443;BME280;45247;47.466;19.004;2022-12-10T00:13:55;98305.34;;;4.73;100.00
59443;BME280;45247;47.466;19.004;2022-12-10T00:16:25;98304.97;;;4.79;100.00
59443;BME280;45247;47.466;19.004;2022-12-10T00:18:54;98313.19;;;4.87;100.00
59443;BME280;45247;47.466;19.004;2022-12-10T00:21:24;98326.56;;;4.97;100.00
59443;BME280;45247;47.466;19.004;2022-12-10T00:23:54;98323.53;;;5.03;100.00
59443;BME280;45247;47.466;19.004;2022-12-10T00:26:24;98330.09;;;5.10;100.00
59443;BME280;45247;47.466;19.004;2022-12-10T00:28:53;98334.25;;;5.13;100.00
59443;BME280;45247;47.466;19.004;2022-12-10T00:31:24;98328.84;;;5.16;100.00
59443;BME280;45247;47.466;19.004;2022-12-10T00:33:53;98326.53;;;5.11;100.00
59443;BME280;45247;47.466;19.004;2022-12-10T00:36:23;98330.16;;;5.09;100.00
59443;BME280;45247;47.466;19.004;2022-12-10T00:38:54;98337.44;;;5.03;100.00
59443;BME280;45247;47.466;19.004;2022-12-10T00:41:22;98337.63;;;5.00;100.00
59443;BME280;45247;47.466;19.004;2022-12-10T00:43:50;98350.63;;;5.02;100.00
59443;BME280;45247;47.466;19.004;2022-12-10T00:46:19;98342.13;;;4.98;100.00
59443;BME280;45247;47.466;19.004;2022-12-10T00:48:47;98350.91;;;4.97;100.00
59443;BME280;45247;47.466;19.004;2022-12-10T00:51:17;98338.41;;;5.02;100.00
59443;BME280;45247;47.466;19.004;2022-12-10T00:53:47;98342.56;;;5.05;100.00
59443;BME280;45247;47.466;19.004;2022-12-10T00:56:19;98345.78;;;5.10;100.00
59443;BME280;45247;47.466;19.004;2022-12-10T00:58:48;98352.56;;;5.13;100.00
59443;BME280;45247;47.466;19.004;2022-12-10T01:01:20;98354.06;;;5.17;100.00
59443;BME280;45247;47.466;19.004;2022-12-10T01:03:50;98350.50;;;5.18;100.00
59443;BME280;45247;47.466;19.004;2022-12-10T01:06:20;98350.44;;;5.19;100.00
59443;BME280;45247;47.466;19.004;2022-12-10T01:08:50;98364.34;;;5.20;100.00
59443;BME280;45247;47.466;19.004;2022-12-10T01:11:22;98372.00;;;5.23;100.00
59443;BME280;45247;47.466;19.004;2022-12-10T01:13:52;98356.09;;;5.26;100.00
59443;BME280;45247;47.466;19.004;2022-12-10T01:16:21;98369.09;;;5.27;100.00
59443;BME280;45247;47.466;19.004;2022-12-10T01:18:52;98364.72;;;5.28;100.00
59443;BME280;45247;47.466;19.004;2022-12-10T01:21:21;98364.91;;;5.25;100.00
59443;BME280;45247;47.466;19.004;2022-12-10T01:23:51;98361.56;;;5.23;100.00
59443;BME280;45247;47.466;19.004;2022-12-10T01:26:25;98373.28;;;5.30;100.00
59443;BME280;45247;47.466;19.004;2022-12-10T01:28:54;98366.22;;;5.32;100.00
59443;BME280;45247;47.466;19.004;2022-12-10T01:31:24;98353.84;;;5.34;100.00
59443;BME280;45247;47.466;19.004;2022-12-10T01:33:53;98363.31;;;5.37;100.00
59443;BME280;45247;47.466;19.004;2022-12-10T01:36:23;98364.88;;;5.39;100.00
59443;BME280;45247;47.466;19.004;2022-12-10T01:38:51;98359.91;;;5.49;100.00
59443;BME280;45247;47.466;19.004;2022-12-10T01:41:23;98362.44;;;5.50;100.00
59443;BME280;45247;47.466;19.004;2022-12-10T01:43:55;98359.63;;;5.53;100.00
59443;BME280;45247;47.466;19.004;2022-12-10T01:46:25;98361.28;;;5.55;100.00
59443;BME280;45247;47.466;19.004;2022-12-10T01:48:53;98362.25;;;5.53;100.00
59443;BME280;45247;47.466;19.004;2022-12-10T01:51:23;98361.09;;;5.58;100.00
59443;BME280;45247;47.466;19.004;2022-12-10T01:53:51;98371.94;;;5.51;100.00
59443;BME280;45247;47.466;19.004;2022-12-10T01:56:21;98379.63;;;5.55;100.00
59443;BME280;45247;47.466;19.004;2022-12-10T01:58:51;98378.41;;;5.46;100.00
59443;BME280;45247;47.466;19.004;2022-12-10T02:01:26;98384.88;;;5.40;100.00
59443;BME280;45247;47.466;19.004;2022-12-10T02:04:06;98385.06;;;5.37;100.00
59443;BME280;45247;47.466;19.004;2022-12-10T02:06:45;98388.69;;;5.35;100.00
59443;BME280;45247;47.466;19.004;2022-12-10T02:09:20;98387.13;;;5.32;100.00
59443;BME280;45247;47.466;19.004;2022-12-10T02:12:08;98395.25;;;5.27;100.00
59443;BME280;45247;47.466;19.004;2022-12-10T02:14:44;98398.72;;;5.28;100.00
59443;BME280;45247;47.466;19.004;2022-12-10T02:17:19;98389.81;;;5.31;100.00
59443;BME280;45247;47.466;19.004;2022-12-10T02:19:59;98395.72;;;5.34;100.00
59443;BME280;45247;47.466;19.004;2022-12-10T02:22:40;98387.69;;;5.37;100.00
59443;BME280;45247;47.466;19.004;2022-12-10T02:25:13;98398.81;;;5.41;100.00
59443;BME280;45247;47.466;19.004;2022-12-10T02:27:47;98394.28;;;5.43;100.00
59443;BME280;45247;47.466;19.004;2022-12-10T02:30:19;98401.03;;;5.47;100.00
59443;BME280;45247;47.466;19.004;2022-12-10T02:32:48;98391.38;;;5.47;100.00
59443;BME280;45247;47.466;19.004;2022-12-10T02:35:21;98398.03;;;5.53;100.00
59443;BME280;45247;47.466;19.004;2022-12-10T02:37:55;98396.25;;;5.53;100.00
59443;BME280;45247;47.466;19.004;2022-12-10T02:40:33;98397.22;;;5.52;100.00
59443;BME280;45247;47.466;19.004;2022-12-10T02:43:03;98388.78;;;5.47;100.00
59443;BME280;45247;47.466;19.004;2022-12-10T02:45:33;98376.34;;;5.51;100.00
59443;BME280;45247;47.466;19.004;2022-12-10T02:48:03;98376.16;;;5.54;100.00
59443;BME280;45247;47.466;19.004;2022-12-10T02:50:32;98371.03;;;5.52;100.00
59443;BME280;45247;47.466;19.004;2022-12-10T02:53:01;98385.97;;;5.50;100.00
59443;BME280;45247;47.466;19.004;2022-12-10T02:55:38;98391.97;;;5.52;100.00
59443;BME280;45247;47.466;19.004;2022-12-10T02:58:21;98392.03;;;5.51;100.00
59443;BME280;45247;47.466;19.004;2022-12-10T03:00:58;98397.94;;;5.55;100.00
59443;BME280;45247;47.466;19.004;2022-12-10T03:03:37;98393.44;;;5.57;100.00
59443;BME280;45247;47.466;19.004;2022-12-10T03:06:11;98390.63;;;5.60;100.00
59443;BME280;45247;47.466;19.004;2022-12-10T03:08:46;98387.28;;;5.58;100.00
59443;BME280;45247;47.466;19.004;2022-12-10T03:11:17;98390.09;;;5.55;100.00
59443;BME280;45247;47.466;19.004;2022-12-10T03:13:53;98398.13;;;5.51;100.00
59443;BME280;45247;47.466;19.004;2022-12-10T03:16:24;98408.59;;;5.51;100.00
59443;BME280;45247;47.466;19.004;2022-12-10T03:18:57;98415.31;;;5.56;100.00
59443;BME280;45247;47.466;19.004;2022-12-10T03:21:28;98414.38;;;5.57;100.00
59443;BME280;45247;47.466;19.004;2022-12-10T03:23:58;98429.88;;;5.60;100.00
59443;BME280;45247;47.466;19.004;2022-12-10T03:26:27;98425.78;;;5.56;100.00
59443;BME280;45247;47.466;19.004;2022-12-10T03:28:59;98422.22;;;5.57;100.00
59443;BME280;45247;47.466;19.004;2022-12-10T03:31:31;98419.88;;;5.52;100.00
59443;BME280;45247;47.466;19.004;2022-12-10T03:34:01;98422.50;;;5.52;100.00
59443;BME280;45247;47.466;19.004;2022-12-10T03:36:30;98414.03;;;5.48;100.00
59443;BME280;45247;47.466;19.004;2022-12-10T03:39:00;98417.41;;;5.36;100.00
59443;BME280;45247;47.466;19.004;2022-12-10T03:41:28;98420.19;;;5.33;100.00
59443;BME280;45247;47.466;19.004;2022-12-10T03:43:58;98429.44;;;5.24;100.00
59443;BME280;45247;47.466;19.004;2022-12-10T03:46:29;98434.19;;;5.18;100.00
59443;BME280;45247;47.466;19.004;2022-12-10T03:48:59;98445.22;;;5.09;100.00
59443;BME280;45247;47.466;19.004;2022-12-10T03:51:28;98440.94;;;5.08;100.00
59443;BME280;45247;47.466;19.004;2022-12-10T03:53:56;98439.25;;;5.07;100.00
59443;BME280;45247;47.466;19.004;2022-12-10T03:56:24;98442.81;;;5.06;100.00
59443;BME280;45247;47.466;19.004;2022-12-10T03:58:52;98447.28;;;5.03;100.00
59443;BME280;45247;47.466;19.004;2022-12-10T04:01:20;98449.50;;;4.95;100.00
59443;BME280;45247;47.466;19.004;2022-12-10T04:03:50;98448.66;;;4.95;100.00
59443;BME280;45247;47.466;19.004;2022-12-10T04:06:19;98449.94;;;4.88;100.00
59443;BME280;45247;47.466;19.004;2022-12-10T04:08:48;98439.59;;;4.72;100.00
59443;BME280;45247;47.466;19.004;2022-12-10T04:11:24;98449.84;;;4.75;100.00
59443;BME280;45247;47.466;19.004;2022-12-10T04:13:52;98451.50;;;4.62;100.00
59443;BME280;45247;47.466;19.004;2022-12-10T04:16:37;98455.75;;;4.48;100.00
59443;BME280;45247;47.466;19.004;2022-12-10T04:19:10;98454.44;;;4.41;100.00
59443;BME280;45247;47.466;19.004;2022-12-10T04:21:39;98456.53;;;4.35;100.00
59443;BME280;45247;47.466;19.004;2022-12-10T04:24:26;98471.53;;;4.31;100.00
59443;BME280;45247;47.466;19.004;2022-12-10T04:27:13;98473.22;;;4.32;100.00
59443;BME280;45247;47.466;19.004;2022-12-10T04:29:44;98472.47;;;4.30;100.00
59443;BME280;45247;47.466;19.004;2022-12-10T04:32:12;98470.97;;;4.26;100.00
59443;BME280;45247;47.466;19.004;2022-12-10T04:34:42;98451.16;;;4.22;100.00
59443;BME280;45247;47.466;19.004;2022-12-10T04:37:10;98457.16;;;4.24;100.00
59443;BME280;45247;47.466;19.004;2022-12-10T04:39:39;98454.88;;;4.18;100.00
59443;BME280;45247;47.466;19.004;2022-12-10T04:42:08;98454.13;;;4.16;100.00
59443;BME280;45247;47.466;19.004;2022-12-10T04:44:36;98458.50;;;4.15;100.00
59443;BME280;45247;47.466;19.004;2022-12-10T04:47:06;98462.72;;;4.18;100.00
59443;BME280;45247;47.466;19.004;2022-12-10T04:49:35;98455.72;;;4.18;100.00
59443;BME280;45247;47.466;19.004;2022-12-10T04:52:05;98454.72;;;4.21;100.00
59443;BME280;45247;47.466;19.004;2022-12-10T04:54:34;98453.03;;;4.20;100.00
59443;BME280;45247;47.466;19.004;2022-12-10T04:57:05;98460.69;;;4.23;100.00
59443;BME280;45247;47.466;19.004;2022-12-10T04:59:33;98457.91;;;4.26;100.00
59443;BME280;45247;47.466;19.004;2022-12-10T05:02:02;98457.72;;;4.29;100.00
59443;BME280;45247;47.466;19.004;2022-12-10T05:04:30;98449.31;;;4.24;100.00
59443;BME280;45247;47.466;19.004;2022-12-10T05:06:59;98456.03;;;4.28;100.00
59443;BME280;45247;47.466;19.004;2022-12-10T05:09:28;98465.16;;;4.21;100.00
59443;BME280;45247;47.466;19.004;2022-12-10T05:11:56;98474.09;;;4.17;100.00
59443;BME280;45247;47.466;19.004;2022-12-10T05:14:24;98482.50;;;4.22;100.00
59443;BME280;45247;47.466;19.004;2022-12-10T05:16:53;98484.13;;;4.24;100.00
59443;BME280;45247;47.466;19.004;2022-12-10T05:19:21;98480.47;;;4.27;100.00
59443;BME280;45247;47.466;19.004;2022-12-10T05:21:50;98483.03;;;4.29;100.00
59443;BME280;45247;47.466;19.004;2022-12-10T05:24:37;98488.88;;;4.32;100.00
59443;BME280;45247;47.466;19.004;2022-12-10T05:27:05;98490.75;;;4.30;100.00
59443;BME280;45247;47.466;19.004;2022-12-10T05:29:34;98499.69;;;4.26;100.00
59443;BME280;45247;47.466;19.004;2022-12-10T05:32:03;98500.44;;;4.28;100.00
59443;BME280;45247;47.466;19.004;2022-12-10T05:34:32;98499.69;;;4.26;100.00
59443;BME280;45247;47.466;19.004;2022-12-10T05:37:00;98500.44;;;4.28;100.00
59443;BME280;45247;47.466;19.004;2022-12-10T05:39:28;98501.19;;;4.30;100.00
59443;BME280;45247;47.466;19.004;2022-12-10T05:41:57;98503.72;;;4.32;100.00
59443;BME280;45247;47.466;19.004;2022-12-10T05:44:25;98502.56;;;4.37;100.00
59443;BME280;45247;47.466;19.004;2022-12-10T05:46:53;98501.63;;;4.38;100.00
59443;BME280;45247;47.466;19.004;2022-12-10T05:49:21;98506.69;;;4.41;100.00
59443;BME280;45247;47.466;19.004;2022-12-10T05:51:49;98508.09;;;4.31;100.00
59443;BME280;45247;47.466;19.004;2022-12-10T05:54:18;98510.66;;;4.33;100.00
59443;BME280;45247;47.466;19.004;2022-12-10T05:56:46;98505.75;;;4.26;100.00
59443;BME280;45247;47.466;19.004;2022-12-10T05:59:15;98504.75;;;4.29;100.00
59443;BME280;45247;47.466;19.004;2022-12-10T06:01:43;98505.59;;;4.30;100.00
59443;BME280;45247;47.466;19.004;2022-12-10T06:04:12;98499.31;;;4.32;100.00
59443;BME280;45247;47.466;19.004;2022-12-10T06:06:40;98507.09;;;4.34;100.00
59443;BME280;45247;47.466;19.004;2022-12-10T06:09:11;98508.03;;;4.33;100.00
59443;BME280;45247;47.466;19.004;2022-12-10T06:11:40;98518.56;;;4.31;100.00
59443;BME280;45247;47.466;19.004;2022-12-10T06:14:09;98514.16;;;4.32;100.00
59443;BME280;45247;47.466;19.004;2022-12-10T06:16:39;98516.78;;;4.32;100.00
59443;BME280;45247;47.466;19.004;2022-12-10T06:19:08;98525.44;;;4.32;100.00
59443;BME280;45247;47.466;19.004;2022-12-10T06:21:37;98520.94;;;4.20;100.00
59443;BME280;45247;47.466;19.004;2022-12-10T06:24:06;98519.75;;;4.10;100.00
59443;BME280;45247;47.466;19.004;2022-12-10T06:26:34;98529.34;;;4.09;100.00
59443;BME280;45247;47.466;19.004;2022-12-10T06:29:03;98522.69;;;4.19;100.00
59443;BME280;45247;47.466;19.004;2022-12-10T06:31:32;98529.34;;;4.25;100.00
59443;BME280;45247;47.466;19.004;2022-12-10T06:34:02;98526.75;;;4.25;100.00
59443;BME280;45247;47.466;19.004;2022-12-10T06:36:30;98527.00;;;4.20;100.00
59443;BME280;45247;47.466;19.004;2022-12-10T06:38:58;98529.66;;;4.19;100.00
59443;BME280;45247;47.466;19.004;2022-12-10T06:41:26;98533.38;;;4.15;100.00
59443;BME280;45247;47.466;19.004;2022-12-10T06:43:54;98545.69;;;4.13;100.00
59443;BME280;45247;47.466;19.004;2022-12-10T06:46:25;98544.00;;;4.12;100.00
59443;BME280;45247;47.466;19.004;2022-12-10T06:48:54;98545.25;;;4.05;100.00
59443;BME280;45247;47.466;19.004;2022-12-10T06:51:23;98548.88;;;4.02;100.00
59443;BME280;45247;47.466;19.004;2022-12-10T06:53:52;98555.88;;;4.01;100.00
59443;BME280;45247;47.466;19.004;2022-12-10T06:56:20;98541.28;;;3.97;100.00
59443;BME280;45247;47.466;19.004;2022-12-10T06:58:48;98538.25;;;3.89;100.00
59443;BME280;45247;47.466;19.004;2022-12-10T07:01:18;98535.97;;;3.83;100.00
59443;BME280;45247;47.466;19.004;2022-12-10T07:03:48;98539.78;;;3.78;100.00
59443;BME280;45247;47.466;19.004;2022-12-10T07:06:17;98534.56;;;3.78;100.00
59443;BME280;45247;47.466;19.004;2022-12-10T07:08:47;98532.00;;;3.76;100.00
59443;BME280;45247;47.466;19.004;2022-12-10T07:11:16;98534.03;;;3.71;100.00
59443;BME280;45247;47.466;19.004;2022-12-10T07:13:45;98532.50;;;3.67;100.00
59443;BME280;45247;47.466;19.004;2022-12-10T07:16:14;98533.59;;;3.63;100.00
59443;BME280;45247;47.466;19.004;2022-12-10T07:18:43;98546.47;;;3.66;100.00
59443;BME280;45247;47.466;19.004;2022-12-10T07:21:19;98538.25;;;3.73;100.00
59443;BME280;45247;47.466;19.004;2022-12-10T07:23:49;98529.41;;;3.76;100.00
59443;BME280;45247;47.466;19.004;2022-12-10T07:26:18;98526.28;;;3.85;100.00
59443;BME280;45247;47.466;19.004;2022-12-10T07:28:46;98514.00;;;3.87;100.00
59443;BME280;45247;47.466;19.004;2022-12-10T07:31:20;98502.22;;;3.96;100.00
59443;BME280;45247;47.466;19.004;2022-12-10T07:33:50;98495.81;;;4.01;100.00
59443;BME280;45247;47.466;19.004;2022-12-10T07:36:19;98493.03;;;4.05;100.00
59443;BME280;45247;47.466;19.004;2022-12-10T07:38:51;98505.75;;;4.11;100.00
59443;BME280;45247;47.466;19.004;2022-12-10T07:41:20;98512.84;;;4.09;100.00
59443;BME280;45247;47.466;19.004;2022-12-10T07:43:49;98522.84;;;4.00;100.00
59443;BME280;45247;47.466;19.004;2022-12-10T07:46:19;98519.38;;;3.84;100.00
59443;BME280;45247;47.466;19.004;2022-12-10T07:48:48;98531.31;;;3.72;100.00
59443;BME280;45247;47.466;19.004;2022-12-10T07:51:18;98542.88;;;3.51;100.00
59443;BME280;45247;47.466;19.004;2022-12-10T07:53:48;98553.28;;;3.35;100.00
59443;BME280;45247;47.466;19.004;2022-12-10T07:56:17;98562.34;;;3.28;100.00
59443;BME280;45247;47.466;19.004;2022-12-10T07:58:45;98562.03;;;3.34;100.00
59443;BME280;45247;47.466;19.004;2022-12-10T08:01:15;98552.81;;;3.44;100.00
59443;BME280;45247;47.466;19.004;2022-12-10T08:03:44;98546.13;;;3.56;100.00
59443;BME280;45247;47.466;19.004;2022-12-10T08:06:14;98544.78;;;3.65;100.00
59443;BME280;45247;47.466;19.004;2022-12-10T08:08:43;98541.34;;;3.80;100.00
59443;BME280;45247;47.466;19.004;2022-12-10T08:11:13;98535.03;;;3.84;100.00
59443;BME280;45247;47.466;19.004;2022-12-10T08:13:43;98544.50;;;3.87;100.00
59443;BME280;45247;47.466;19.004;2022-12-10T08:16:14;98539.44;;;3.84;100.00
59443;BME280;45247;47.466;19.004;2022-12-10T08:18:42;98538.25;;;3.89;100.00
59443;BME280;45247;47.466;19.004;2022-12-10T08:21:12;98534.91;;;4.03;100.00
59443;BME280;45247;47.466;19.004;2022-12-10T08:23:41;98520.94;;;4.20;100.00
59443;BME280;45247;47.466;19.004;2022-12-10T08:26:11;98528.00;;;4.18;100.00
59443;BME280;45247;47.466;19.004;2022-12-10T08:28:40;98527.00;;;4.05;100.00
59443;BME280;45247;47.466;19.004;2022-12-10T08:31:10;98522.03;;;4.16;100.00
59443;BME280;45247;47.466;19.004;2022-12-10T08:33:40;98528.25;;;4.29;100.00
59443;BME280;45247;47.466;19.004;2022-12-10T08:36:11;98536.94;;;4.45;100.00
59443;BME280;45247;47.466;19.004;2022-12-10T08:38:40;98538.50;;;4.64;100.00
59443;BME280;45247;47.466;19.004;2022-12-10T08:41:10;98528.44;;;4.72;100.00
59443;BME280;45247;47.466;19.004;2022-12-10T08:43:39;98536.50;;;4.83;100.00
59443;BME280;45247;47.466;19.004;2022-12-10T08:46:09;98543.22;;;4.87;100.00
59443;BME280;45247;47.466;19.004;2022-12-10T08:48:38;98548.13;;;4.93;100.00
59443;BME280;45247;47.466;19.004;2022-12-10T08:51:08;98555.59;;;4.99;100.00
59443;BME280;45247;47.466;19.004;2022-12-10T08:53:36;98550.75;;;5.08;100.00
59443;BME280;45247;47.466;19.004;2022-12-10T08:56:04;98551.78;;;5.05;100.00
59443;BME280;45247;47.466;19.004;2022-12-10T08:58:32;98555.69;;;4.98;100.00
59443;BME280;45247;47.466;19.004;2022-12-10T09:01:06;98553.34;;;4.93;100.00
59443;BME280;45247;47.466;19.004;2022-12-10T09:03:37;98565.97;;;5.01;100.00
59443;BME280;45247;47.466;19.004;2022-12-10T09:06:06;98564.28;;;5.00;100.00
59443;BME280;45247;47.466;19.004;2022-12-10T09:08:35;98572.41;;;4.95;100.00
59443;BME280;45247;47.466;19.004;2022-12-10T09:11:07;98571.91;;;4.89;100.00
59443;BME280;45247;47.466;19.004;2022-12-10T09:13:35;98568.38;;;4.90;100.00
59443;BME280;45247;47.466;19.004;2022-12-10T09:16:04;98561.97;;;4.80;100.00
59443;BME280;45247;47.466;19.004;2022-12-10T09:18:33;98556.72;;;4.80;100.00
59443;BME280;45247;47.466;19.004;2022-12-10T09:21:06;98550.78;;;4.62;100.00
59443;BME280;45247;47.466;19.004;2022-12-10T09:23:34;98558.09;;;4.71;100.00
59443;BME280;45247;47.466;19.004;2022-12-10T09:26:05;98550.09;;;4.74;100.00
59443;BME280;45247;47.466;19.004;2022-12-10T09:28:34;98549.50;;;4.85;100.00
59443;BME280;45247;47.466;19.004;2022-12-10T09:31:03;98565.34;;;4.82;100.00
59443;BME280;45247;47.466;19.004;2022-12-10T09:33:40;98563.53;;;4.68;100.00
59443;BME280;45247;47.466;19.004;2022-12-10T09:36:11;98553.34;;;4.63;100.00
59443;BME280;45247;47.466;19.004;2022-12-10T09:38:41;98556.69;;;4.65;100.00
59443;BME280;45247;47.466;19.004;2022-12-10T09:44:20;98526.53;;;4.60;100.00
59443;BME280;45247;47.466;19.004;2022-12-10T09:46:51;98525.06;;;4.70;100.00
59443;BME280;45247;47.466;19.004;2022-12-10T09:49:29;98514.97;;;4.64;100.00
59443;BME280;45247;47.466;19.004;2022-12-10T09:52:02;98514.59;;;4.70;100.00
59443;BME280;45247;47.466;19.004;2022-12-10T09:54:33;98495.97;;;4.76;100.00
59443;BME280;45247;47.466;19.004;2022-12-10T09:57:05;98501.50;;;4.86;100.00
59443;BME280;45247;47.466;19.004;2022-12-10T09:59:37;98494.13;;;4.92;100.00
59443;BME280;45247;47.466;19.004;2022-12-10T10:02:20;98486.38;;;4.91;100.00
59443;BME280;45247;47.466;19.004;2022-12-10T10:04:49;98498.34;;;4.95;100.00
59443;BME280;45247;47.466;19.004;2022-12-10T10:07:22;98492.72;;;4.87;100.00
59443;BME280;45247;47.466;19.004;2022-12-10T10:09:55;98495.84;;;4.93;100.00
59443;BME280;45247;47.466;19.004;2022-12-10T10:12:26;98495.78;;;4.79;100.00
59443;BME280;45247;47.466;19.004;2022-12-10T10:14:54;98496.44;;;4.83;100.00
59443;BME280;45247;47.466;19.004;2022-12-10T10:17:27;98497.38;;;4.82;100.00
59443;BME280;45247;47.466;19.004;2022-12-10T10:19:59;98494.06;;;4.64;100.00
59443;BME280;45247;47.466;19.004;2022-12-10T10:22:28;98498.22;;;4.52;100.00
59443;BME280;45247;47.466;19.004;2022-12-10T10:24:57;98498.13;;;4.53;100.00
59443;BME280;45247;47.466;19.004;2022-12-10T10:27:30;98504.13;;;4.56;100.00
59443;BME280;45247;47.466;19.004;2022-12-10T10:30:02;98501.25;;;4.44;100.00
59443;BME280;45247;47.466;19.004;2022-12-10T10:32:45;98492.16;;;4.51;100.00
59443;BME280;45247;47.466;19.004;2022-12-10T10:35:24;98502.50;;;4.53;100.00
59443;BME280;45247;47.466;19.004;2022-12-10T10:37:59;98503.34;;;4.53;100.00
59443;BME280;45247;47.466;19.004;2022-12-10T10:40:30;98500.97;;;4.65;100.00
59443;BME280;45247;47.466;19.004;2022-12-10T10:43:00;98507.19;;;4.62;100.00
59443;BME280;45247;47.466;19.004;2022-12-10T10:45:38;98502.66;;;4.66;100.00
59443;BME280;45247;47.466;19.004;2022-12-10T10:48:12;98505.13;;;4.53;100.00
59443;BME280;45247;47.466;19.004;2022-12-10T10:50:44;98509.28;;;4.41;100.00
59443;BME280;45247;47.466;19.004;2022-12-10T10:53:28;98516.09;;;4.44;100.00
59443;BME280;45247;47.466;19.004;2022-12-10T10:56:01;98511.13;;;4.39;100.00
59443;BME280;45247;47.466;19.004;2022-12-10T10:58:32;98505.75;;;4.42;100.00
59443;BME280;45247;47.466;19.004;2022-12-10T11:01:03;98497.50;;;4.34;100.00
59443;BME280;45247;47.466;19.004;2022-12-10T11:03:33;98491.75;;;4.43;100.00
59443;BME280;45247;47.466;19.004;2022-12-10T11:06:06;98491.56;;;4.46;100.00
59443;BME280;45247;47.466;19.004;2022-12-10T11:08:38;98473.03;;;4.51;100.00
59443;BME280;45247;47.466;19.004;2022-12-10T11:11:11;98486.16;;;4.49;100.00
59443;BME280;45247;47.466;19.004;2022-12-10T11:13:39;98487.88;;;4.50;100.00
59443;BME280;45247;47.466;19.004;2022-12-10T11:16:16;98471.78;;;4.42;100.00
59443;BME280;45247;47.466;19.004;2022-12-10T11:18:53;98467.66;;;4.38;100.00
59443;BME280;45247;47.466;19.004;2022-12-10T11:21:23;98477.94;;;4.41;100.00
59443;BME280;45247;47.466;19.004;2022-12-10T11:23:55;98464.34;;;4.50;100.00
59443;BME280;45247;47.466;19.004;2022-12-10T11:29:43;98454.56;;;4.24;100.00
59443;BME280;45247;47.466;19.004;2022-12-10T11:32:28;98457.81;;;4.27;100.00
59443;BME280;45247;47.466;19.004;2022-12-10T11:35:10;98440.56;;;4.25;100.00
59443;BME280;45247;47.466;19.004;2022-12-10T11:37:44;98437.50;;;4.33;100.00
59443;BME280;45247;47.466;19.004;2022-12-10T11:40:33;98435.28;;;4.41;100.00
59443;BME280;45247;47.466;19.004;2022-12-10T11:43:14;98423.16;;;4.40;100.00
59443;BME280;45247;47.466;19.004;2022-12-10T11:46:03;98424.34;;;4.34;100.00
59443;BME280;45247;47.466;19.004;2022-12-10T11:48:47;98419.47;;;4.28;100.00
59443;BME280;45247;47.466;19.004;2022-12-10T11:51:24;98406.78;;;4.22;100.00
59443;BME280;45247;47.466;19.004;2022-12-10T11:54:13;98402.81;;;4.15;100.00
59443;BME280;45247;47.466;19.004;2022-12-10T11:56:47;98394.09;;;4.16;100.00
59443;BME280;45247;47.466;19.004;2022-12-10T11:59:23;98400.56;;;4.09;100.00
59443;BME280;45247;47.466;19.004;2022-12-10T12:02:35;98407.72;;;4.05;100.00
59443;BME280;45247;47.466;19.004;2022-12-10T12:05:18;98397.97;;;4.09;100.00
59443;BME280;45247;47.466;19.004;2022-12-10T12:07:53;98399.41;;;3.98;100.00
59443;BME280;45247;47.466;19.004;2022-12-10T12:10:45;98394.94;;;4.00;100.00
59443;BME280;45247;47.466;19.004;2022-12-10T12:13:24;98400.84;;;4.04;100.00
59443;BME280;45247;47.466;19.004;2022-12-10T12:15:56;98397.19;;;4.07;100.00
59443;BME280;45247;47.466;19.004;2022-12-10T12:18:30;98395.94;;;3.98;100.00
59443;BME280;45247;47.466;19.004;2022-12-10T12:21:05;98390.66;;;3.99;100.00
59443;BME280;45247;47.466;19.004;2022-12-10T12:23:44;98383.91;;;3.95;100.00
59443;BME280;45247;47.466;19.004;2022-12-10T12:26:19;98378.97;;;3.91;100.00
59443;BME280;45247;47.466;19.004;2022-12-10T12:28:54;98381.16;;;3.83;100.00
59443;BME280;45247;47.466;19.004;2022-12-10T12:31:29;98384.88;;;3.79;100.00
59443;BME280;45247;47.466;19.004;2022-12-10T12:34:03;98387.91;;;3.71;100.00
59443;BME280;45247;47.466;19.004;2022-12-10T12:36:34;98384.28;;;3.73;100.00
59443;BME280;45247;47.466;19.004;2022-12-10T12:39:10;98383.59;;;3.70;100.00
59443;BME280;45247;47.466;19.004;2022-12-10T12:41:48;98378.72;;;3.64;100.00
59443;BME280;45247;47.466;19.004;2022-12-10T12:44:24;98378.47;;;3.53;100.00
59443;BME280;45247;47.466;19.004;2022-12-10T12:47:01;98382.94;;;3.50;100.00
59443;BME280;45247;47.466;19.004;2022-12-10T12:49:32;98390.09;;;3.47;100.00
59443;BME280;45247;47.466;19.004;2022-12-10T12:52:06;98385.28;;;3.39;100.00
59443;BME280;45247;47.466;19.004;2022-12-10T12:54:43;98395.53;;;3.42;100.00
59443;BME280;45247;47.466;19.004;2022-12-10T12:57:16;98388.50;;;3.44;100.00
59443;BME280;45247;47.466;19.004;2022-12-10T12:59:57;98391.94;;;3.45;100.00
59443;BME280;45247;47.466;19.004;2022-12-10T13:02:44;98394.63;;;3.43;100.00
59443;BME280;45247;47.466;19.004;2022-12-10T13:05:14;98408.59;;;3.42;100.00
59443;BME280;45247;47.466;19.004;2022-12-10T13:07:44;98402.88;;;3.36;100.00
59443;BME280;45247;47.466;19.004;2022-12-10T13:10:44;98410.44;;;3.40;100.00
59443;BME280;45247;47.466;19.004;2022-12-10T13:13:29;98415.50;;;3.43;100.00
59443;BME280;45247;47.466;19.004;2022-12-10T13:19:22;98408.59;;;3.42;100.00
59443;BME280;45247;47.466;19.004;2022-12-10T13:21:59;98412.81;;;3.45;100.00
59443;BME280;45247;47.466;19.004;2022-12-10T13:24:46;98411.63;;;3.50;100.00